Time;durP1;ratioP1;P1;durP2;ratioP2;P2;SDS_P1;SDS_P2;PMS_P1;PMS_P2;Temp;Humidity;BMP_temperature;BMP_pressure;BME280_temperature;BME280_humidity;BME280_pressure;Samples;Min_cycle;Max_cycle;Signal;HPM_P1;HPM_P2
2022/07/08 00:00:52;;;;;;;9.27;2.22;;;15.20;99.90;;;;;;5039907;28;20048;-73
2022/07/08 00:03:18;;;;;;;10.02;2.20;;;15.10;99.90;;;;;;5040287;28;20025;-72
2022/07/08 00:05:44;;;;;;;10.15;1.95;;;15.10;99.90;;;;;;5033396;28;20013;-72
2022/07/08 00:08:10;;;;;;;5.53;1.63;;;15.00;99.90;;;;;;5034387;28;20447;-72
2022/07/08 00:10:35;;;;;;;15.55;2.25;;;15.00;99.90;;;;;;5032903;28;20040;-73
2022/07/08 00:13:01;;;;;;;12.63;2.05;;;15.10;99.90;;;;;;5038957;28;20033;-72
2022/07/08 00:15:26;;;;;;;9.48;2.10;;;15.00;99.90;;;;;;5036996;28;20053;-73
2022/07/08 00:17:52;;;;;;;7.93;2.05;;;15.00;99.90;;;;;;5033976;28;20017;-73
2022/07/08 00:20:18;;;;;;;11.07;1.80;;;14.90;99.90;;;;;;5036209;28;20036;-74
2022/07/08 00:22:43;;;;;;;9.10;1.85;;;14.90;99.90;;;;;;5039405;28;20515;-72
2022/07/08 00:25:09;;;;;;;9.45;1.83;;;14.90;99.90;;;;;;5040681;28;20469;-73
2022/07/08 00:27:34;;;;;;;6.30;1.80;;;14.90;99.90;;;;;;5033411;28;20409;-72
2022/07/08 00:30:00;;;;;;;10.55;2.40;;;14.80;99.90;;;;;;5033100;28;20184;-73
2022/07/08 00:32:25;;;;;;;4.60;1.60;;;14.80;99.90;;;;;;5039533;28;20508;-72
2022/07/08 00:34:51;;;;;;;9.63;2.33;;;14.80;99.90;;;;;;5040213;28;20028;-73
2022/07/08 00:37:17;;;;;;;12.02;2.40;;;14.70;99.90;;;;;;5038623;28;20029;-73
2022/07/08 00:39:43;;;;;;;8.35;2.00;;;14.70;99.90;;;;;;5033091;28;20069;-73
2022/07/08 00:42:09;;;;;;;8.20;2.25;;;14.70;99.90;;;;;;5034238;28;20060;-73
2022/07/08 00:44:35;;;;;;;9.02;2.10;;;14.60;99.90;;;;;;5038626;28;20545;-72
2022/07/08 00:47:00;;;;;;;6.90;1.80;;;14.60;99.90;;;;;;5035346;28;20034;-74
2022/07/08 00:49:26;;;;;;;12.45;2.35;;;14.60;99.90;;;;;;5038480;28;20376;-72
2022/07/08 00:51:52;;;;;;;12.98;2.30;;;14.50;99.90;;;;;;5048432;28;20532;-73
2022/07/08 00:54:21;;;;;;;9.18;2.30;;;14.50;99.90;;;;;;5048441;28;20029;-73
2022/07/08 00:56:47;;;;;;;7.60;2.20;;;14.50;99.90;;;;;;5048051;28;20024;-72
2022/07/08 00:59:13;;;;;;;11.45;2.35;;;14.50;99.90;;;;;;5051941;28;20465;-72
2022/07/08 01:01:39;;;;;;;11.73;2.38;;;14.40;99.90;;;;;;5044646;28;20076;-74
2022/07/08 01:04:05;;;;;;;8.65;2.00;;;14.40;99.90;;;;;;5048740;28;20497;-72
2022/07/08 01:06:30;;;;;;;9.25;1.92;;;14.40;99.90;;;;;;5050206;28;20029;-74
2022/07/08 01:08:56;;;;;;;6.20;1.90;;;14.40;99.90;;;;;;5051964;28;20063;-73
2022/07/08 01:11:22;;;;;;;10.63;2.25;;;14.30;99.90;;;;;;5051107;28;20032;-73
2022/07/08 01:13:48;;;;;;;12.77;2.40;;;14.30;99.90;;;;;;5038575;28;20037;-72
2022/07/08 01:16:14;;;;;;;9.80;2.22;;;14.30;99.90;;;;;;5046276;28;20029;-73
2022/07/08 01:18:40;;;;;;;10.30;2.50;;;14.30;99.90;;;;;;5044329;28;20350;-72
2022/07/08 01:21:07;;;;;;;13.73;2.85;;;14.20;99.90;;;;;;5047800;28;20521;-73
2022/07/08 01:23:32;;;;;;;10.73;2.25;;;14.20;99.90;;;;;;5040463;28;20044;-73
2022/07/08 01:25:59;;;;;;;13.73;2.15;;;14.30;99.90;;;;;;5050796;28;20376;-73
2022/07/08 01:28:25;;;;;;;11.70;2.20;;;14.20;99.90;;;;;;5039600;28;20021;-73
2022/07/08 01:30:51;;;;;;;7.72;2.08;;;14.20;99.90;;;;;;5041694;28;20036;-73
2022/07/08 01:33:16;;;;;;;10.18;2.15;;;14.20;99.90;;;;;;5050488;28;20060;-72
2022/07/08 01:35:42;;;;;;;13.02;2.30;;;14.20;99.90;;;;;;5050328;28;20017;-73
2022/07/08 01:38:08;;;;;;;11.15;2.45;;;14.20;99.90;;;;;;5051869;28;20457;-73
2022/07/08 01:40:33;;;;;;;8.77;1.73;;;14.10;99.90;;;;;;5051717;28;20020;-72
2022/07/08 01:42:59;;;;;;;4.82;2.53;;;14.10;99.90;;;;;;5042180;28;20030;-72
2022/07/08 01:45:24;;;;;;;10.93;2.45;;;14.10;99.90;;;;;;5044046;28;20053;-73
2022/07/08 01:47:50;;;;;;;8.60;2.10;;;14.10;99.90;;;;;;5035391;28;20473;-72
2022/07/08 01:50:16;;;;;;;8.80;2.22;;;14.10;99.90;;;;;;5040739;28;20465;-73
2022/07/08 01:52:41;;;;;;;8.07;2.33;;;14.10;99.90;;;;;;5044732;28;20021;-73
2022/07/08 01:55:07;;;;;;;9.30;2.83;;;14.10;99.90;;;;;;5037844;28;20548;-73
2022/07/08 01:57:34;;;;;;;13.38;2.65;;;14.00;99.90;;;;;;5037532;28;20029;-72
2022/07/08 02:00:00;;;;;;;14.38;2.90;;;14.00;99.90;;;;;;5043693;28;20037;-73
2022/07/08 02:02:26;;;;;;;16.55;2.78;;;14.00;99.90;;;;;;5037648;28;20027;-73
2022/07/08 02:04:52;;;;;;;13.38;2.80;;;14.00;99.90;;;;;;5047557;28;20112;-72
2022/07/08 02:07:17;;;;;;;11.32;2.80;;;13.90;99.90;;;;;;5036708;28;20014;-73
2022/07/08 02:09:43;;;;;;;10.20;2.70;;;13.90;99.90;;;;;;5048977;28;20029;-72
2022/07/08 02:12:18;;;;;;;12.77;2.58;;;13.90;99.90;;;;;;5048744;28;20032;-72
2022/07/08 02:14:50;;;;;;;14.57;3.25;;;13.80;99.90;;;;;;5047229;28;20028;-73
2022/07/08 02:17:17;;;;;;;12.05;2.92;;;13.80;99.90;;;;;;5049211;28;20017;-73
2022/07/08 02:19:44;;;;;;;18.05;2.90;;;13.80;99.90;;;;;;5042828;28;20059;-73
2022/07/08 02:22:11;;;;;;;9.88;2.53;;;13.80;99.90;;;;;;5047929;28;20489;-73
2022/07/08 02:24:37;;;;;;;8.80;2.13;;;13.80;99.90;;;;;;5048081;28;20033;-72
2022/07/08 02:27:04;;;;;;;12.50;2.92;;;13.80;99.90;;;;;;5049943;28;20078;-72
2022/07/08 02:29:30;;;;;;;10.38;3.00;;;13.80;99.90;;;;;;5050424;28;20017;-73
2022/07/08 02:31:55;;;;;;;20.15;3.03;;;13.80;99.90;;;;;;5050933;28;20135;-73
2022/07/08 02:34:21;;;;;;;10.55;2.55;;;13.80;99.90;;;;;;5043717;28;20063;-73
2022/07/08 02:36:46;;;;;;;11.65;3.22;;;13.70;99.90;;;;;;5052885;28;20022;-72
2022/07/08 02:39:15;;;;;;;12.23;2.60;;;13.70;99.90;;;;;;5057967;28;20135;-73
2022/07/08 02:41:41;;;;;;;12.85;2.70;;;13.70;99.90;;;;;;5057239;28;20025;-73
2022/07/08 02:44:07;;;;;;;14.18;2.92;;;13.70;99.90;;;;;;5045708;28;20071;-72
2022/07/08 02:46:33;;;;;;;10.68;2.83;;;13.60;99.90;;;;;;5050990;28;20485;-74
2022/07/08 02:48:59;;;;;;;13.50;3.22;;;13.60;99.90;;;;;;5045854;28;20025;-72
2022/07/08 02:51:25;;;;;;;11.88;3.33;;;13.60;99.90;;;;;;5041874;28;20025;-73
2022/07/08 02:53:50;;;;;;;11.23;2.63;;;13.60;99.90;;;;;;5057933;28;20021;-73
2022/07/08 02:56:16;;;;;;;14.80;3.22;;;13.60;99.90;;;;;;5044430;28;20159;-73
2022/07/08 02:58:42;;;;;;;11.25;2.50;;;13.60;99.90;;;;;;5057773;28;20013;-73
2022/07/08 03:01:08;;;;;;;15.40;3.20;;;13.60;99.90;;;;;;5052122;28;20118;-73
2022/07/08 03:03:33;;;;;;;11.50;3.30;;;13.60;99.90;;;;;;5054604;28;20035;-73
2022/07/08 03:05:59;;;;;;;12.35;3.20;;;13.60;99.90;;;;;;5055906;28;20472;-72
2022/07/08 03:08:24;;;;;;;13.15;3.05;;;13.50;99.90;;;;;;5041120;28;20025;-73
2022/07/08 03:10:50;;;;;;;11.20;3.20;;;13.60;99.90;;;;;;5054733;28;20056;-72
2022/07/08 03:13:16;;;;;;;15.18;3.25;;;13.50;99.90;;;;;;5042022;28;20029;-72
2022/07/08 03:15:42;;;;;;;10.10;2.80;;;13.50;99.90;;;;;;5040493;28;20040;-73
2022/07/08 03:18:07;;;;;;;13.65;3.17;;;13.50;99.90;;;;;;5048285;28;20397;-72
2022/07/08 03:20:33;;;;;;;10.63;2.90;;;13.50;99.90;;;;;;5051678;28;20021;-72
2022/07/08 03:22:59;;;;;;;11.45;3.08;;;13.50;99.90;;;;;;5046818;28;20110;-72
2022/07/08 03:25:25;;;;;;;12.55;3.10;;;13.40;99.90;;;;;;5057364;28;20493;-72
2022/07/08 03:27:50;;;;;;;12.38;3.75;;;13.50;99.90;;;;;;5048788;28;20040;-72
2022/07/08 03:30:16;;;;;;;14.82;3.78;;;13.50;99.90;;;;;;5054810;28;20033;-73
2022/07/08 03:32:41;;;;;;;14.55;3.17;;;13.50;99.90;;;;;;5042134;28;20396;-72
2022/07/08 03:35:08;;;;;;;14.57;3.20;;;13.40;99.90;;;;;;5045060;28;20018;-73
2022/07/08 03:37:33;;;;;;;12.48;3.63;;;13.40;99.90;;;;;;5055018;28;20471;-72
2022/07/08 03:42:48;;;;;;;12.20;4.22;;;13.40;99.90;;;;;;5054091;28;20106;-72
2022/07/08 03:45:13;;;;;;;22.67;3.78;;;13.40;99.90;;;;;;5050349;28;20117;-72
2022/07/08 03:47:39;;;;;;;12.38;3.67;;;13.40;99.90;;;;;;5050721;28;20401;-73
2022/07/08 03:50:05;;;;;;;10.05;3.70;;;13.40;99.90;;;;;;5042626;28;20033;-73
2022/07/08 03:52:30;;;;;;;9.10;3.55;;;13.40;99.90;;;;;;5050686;28;20032;-73
2022/07/08 03:54:56;;;;;;;9.20;3.60;;;13.30;99.90;;;;;;5043689;28;20041;-73
2022/07/08 03:57:21;;;;;;;11.27;3.45;;;13.40;99.90;;;;;;5042554;28;20036;-73
2022/07/08 03:59:47;;;;;;;15.15;4.22;;;13.40;99.90;;;;;;5049900;28;20104;-73
2022/07/08 04:02:13;;;;;;;17.98;4.60;;;13.30;99.90;;;;;;5049787;28;20059;-72
2022/07/08 04:04:38;;;;;;;9.60;4.00;;;13.30;99.90;;;;;;5038975;28;20133;-73
2022/07/08 04:07:04;;;;;;;10.93;3.92;;;13.30;99.90;;;;;;5049289;28;20465;-73
2022/07/08 04:09:29;;;;;;;16.40;4.13;;;13.30;99.90;;;;;;5053931;28;20561;-72
2022/07/08 04:11:55;;;;;;;17.33;4.32;;;13.40;99.90;;;;;;5046490;28;20410;-74
2022/07/08 04:14:20;;;;;;;10.25;4.25;;;13.30;99.90;;;;;;5045129;28;20041;-73
2022/07/08 04:16:46;;;;;;;14.48;4.63;;;13.30;99.90;;;;;;5048746;28;20051;-72
2022/07/08 04:19:11;;;;;;;17.95;4.40;;;13.40;99.90;;;;;;5046502;28;20450;-73
2022/07/08 04:21:37;;;;;;;18.77;3.65;;;13.40;99.90;;;;;;5039173;28;20052;-73
2022/07/08 04:24:03;;;;;;;13.30;4.13;;;13.40;99.90;;;;;;5033284;28;20077;-72
2022/07/08 04:26:31;;;;;;;16.90;4.47;;;13.40;99.90;;;;;;5037167;28;20036;-73
2022/07/08 04:29:01;;;;;;;14.68;4.10;;;13.50;99.90;;;;;;5034274;28;20053;-73
2022/07/08 04:31:27;;;;;;;10.82;3.78;;;13.50;99.90;;;;;;5036246;28;20025;-74
2022/07/08 04:33:53;;;;;;;12.10;3.83;;;13.50;99.90;;;;;;5036364;28;20037;-74
2022/07/08 04:36:23;;;;;;;14.93;4.15;;;13.50;99.90;;;;;;5040530;28;20027;-75
2022/07/08 04:38:48;;;;;;;11.63;3.80;;;13.60;99.90;;;;;;5044395;28;20034;-74
2022/07/08 04:41:14;;;;;;;13.30;3.85;;;13.60;99.90;;;;;;5039843;28;20373;-74
2022/07/08 04:43:40;;;;;;;10.35;3.65;;;13.60;99.90;;;;;;5039715;28;20018;-74
2022/07/08 04:46:05;;;;;;;13.85;3.60;;;13.60;99.90;;;;;;5036336;28;20383;-73
2022/07/08 04:48:31;;;;;;;16.15;3.97;;;13.60;99.90;;;;;;5036439;28;20048;-74
2022/07/08 04:50:57;;;;;;;16.45;4.20;;;13.70;99.90;;;;;;5039825;28;20029;-73
2022/07/08 04:53:23;;;;;;;15.25;3.50;;;13.70;99.90;;;;;;5032360;28;20068;-76
2022/07/08 04:55:49;;;;;;;11.90;3.25;;;13.70;99.90;;;;;;5050723;28;20032;-74
2022/07/08 04:58:14;;;;;;;16.67;4.00;;;13.80;99.90;;;;;;5055143;28;20040;-73
2022/07/08 05:00:40;;;;;;;16.45;4.03;;;13.90;99.90;;;;;;5052185;28;20041;-74
2022/07/08 05:03:06;;;;;;;15.98;3.35;;;13.90;99.90;;;;;;5053218;28;20033;-75
2022/07/08 05:05:31;;;;;;;15.63;4.20;;;14.00;99.90;;;;;;5052894;28;20040;-73
2022/07/08 05:08:01;;;;;;;13.20;3.47;;;14.00;99.90;;;;;;5057113;28;20016;-74
2022/07/08 05:10:27;;;;;;;17.95;3.90;;;14.00;99.90;;;;;;5053250;28;20064;-73
2022/07/08 05:12:54;;;;;;;14.20;3.88;;;14.10;99.90;;;;;;5059001;28;20040;-73
2022/07/08 05:15:20;;;;;;;21.80;3.80;;;14.10;99.90;;;;;;5052280;28;20005;-73
2022/07/08 05:17:47;;;;;;;21.73;4.20;;;14.20;99.90;;;;;;5056636;28;20052;-73
2022/07/08 05:20:13;;;;;;;16.48;3.47;;;14.30;99.90;;;;;;5044122;28;20017;-72
2022/07/08 05:22:39;;;;;;;23.63;3.90;;;14.30;99.90;;;;;;5031571;28;20102;-72
2022/07/08 05:25:05;;;;;;;17.23;3.42;;;14.40;99.90;;;;;;5033483;28;20674;-72
2022/07/08 05:27:31;;;;;;;12.50;3.35;;;14.40;99.90;;;;;;5036064;28;20034;-73
2022/07/08 05:29:56;;;;;;;18.50;3.47;;;14.50;99.90;;;;;;5040776;28;20060;-72
2022/07/08 05:32:22;;;;;;;12.13;3.10;;;14.50;99.90;;;;;;5037628;28;20047;-73
2022/07/08 05:34:48;;;;;;;19.83;3.65;;;14.60;99.90;;;;;;5032853;28;20029;-73
2022/07/08 05:37:14;;;;;;;16.63;3.42;;;14.70;99.90;;;;;;5030107;28;20478;-72
2022/07/08 05:39:40;;;;;;;20.58;4.03;;;14.80;99.90;;;;;;5039451;28;20474;-73
2022/07/08 05:42:08;;;;;;;17.73;3.38;;;14.90;99.90;;;;;;5034806;28;20071;-74
2022/07/08 05:44:34;;;;;;;18.15;3.42;;;14.90;99.90;;;;;;5039903;28;20105;-73
2022/07/08 05:47:00;;;;;;;21.10;3.40;;;15.00;99.90;;;;;;5032060;28;20485;-73
2022/07/08 05:49:25;;;;;;;14.40;3.40;;;15.10;99.90;;;;;;5042100;28;20014;-74
2022/07/08 05:51:51;;;;;;;15.77;3.33;;;15.10;99.90;;;;;;5050852;28;20064;-73
2022/07/08 05:54:16;;;;;;;16.70;3.00;;;15.20;99.90;;;;;;5055375;28;20044;-75
2022/07/08 05:56:42;;;;;;;13.57;2.60;;;15.30;99.90;;;;;;5046718;28;20029;-73
2022/07/08 05:59:07;;;;;;;16.27;3.03;;;15.40;99.90;;;;;;5043161;28;20036;-73
2022/07/08 06:01:33;;;;;;;13.98;2.55;;;15.50;99.90;;;;;;5043652;28;20040;-74
2022/07/08 06:03:58;;;;;;;16.33;2.83;;;15.50;99.90;;;;;;5039196;28;20052;-73
2022/07/08 06:06:24;;;;;;;13.70;2.72;;;15.60;99.90;;;;;;5044595;28;20037;-73
2022/07/08 06:08:49;;;;;;;16.27;3.50;;;15.60;99.90;;;;;;5045887;28;20525;-73
2022/07/08 06:11:15;;;;;;;11.82;2.65;;;15.70;99.90;;;;;;5050380;28;20033;-73
2022/07/08 06:13:41;;;;;;;13.63;2.67;;;15.70;99.90;;;;;;5052085;28;20041;-74
2022/07/08 06:16:06;;;;;;;13.98;2.42;;;15.70;99.90;;;;;;5044859;28;20037;-74
2022/07/08 06:18:34;;;;;;;16.50;2.58;;;15.80;99.90;;;;;;5052226;28;20029;-74
2022/07/08 06:21:00;;;;;;;17.25;2.67;;;15.90;99.90;;;;;;5053913;28;20025;-74
2022/07/08 06:23:26;;;;;;;14.32;2.72;;;15.90;99.90;;;;;;5051832;28;20493;-75
2022/07/08 06:25:51;;;;;;;13.20;2.42;;;16.00;99.90;;;;;;5051595;28;20032;-75
2022/07/08 06:28:17;;;;;;;15.00;2.80;;;16.10;99.90;;;;;;5045554;28;20072;-74
2022/07/08 06:30:43;;;;;;;11.23;2.17;;;16.10;99.90;;;;;;5044868;28;20369;-71
2022/07/08 06:33:08;;;;;;;11.07;2.25;;;16.20;99.90;;;;;;5042512;28;20029;-75
2022/07/08 06:35:34;;;;;;;10.13;2.35;;;16.20;99.90;;;;;;5042777;28;20031;-73
2022/07/08 06:38:01;;;;;;;11.63;2.17;;;16.30;99.90;;;;;;5044102;28;20025;-72
2022/07/08 06:40:27;;;;;;;12.45;2.33;;;16.50;99.90;;;;;;5044044;28;20030;-73
2022/07/08 06:42:53;;;;;;;12.20;2.38;;;16.60;99.90;;;;;;5049060;28;20033;-73
2022/07/08 06:45:18;;;;;;;10.77;2.17;;;16.70;99.90;;;;;;5052189;28;20096;-73
2022/07/08 06:47:44;;;;;;;9.75;2.30;;;16.80;99.90;;;;;;5051811;28;20021;-73
2022/07/08 06:50:10;;;;;;;10.15;2.15;;;16.90;99.90;;;;;;5052749;28;20024;-73
2022/07/08 06:52:36;;;;;;;10.32;2.35;;;17.10;99.90;;;;;;5043342;28;20056;-74
2022/07/08 06:55:03;;;;;;;13.15;2.15;;;17.10;99.90;;;;;;5040717;28;20055;-74
2022/07/08 06:57:29;;;;;;;8.38;2.10;;;17.30;99.90;;;;;;5042691;28;20104;-74
2022/07/08 06:59:55;;;;;;;10.75;2.03;;;17.40;99.90;;;;;;5038588;28;20111;-73
2022/07/08 07:02:20;;;;;;;8.13;2.03;;;17.50;99.90;;;;;;5044094;28;20596;-73
2022/07/08 07:04:46;;;;;;;7.47;1.88;;;17.60;99.90;;;;;;5042495;28;20513;-73
2022/07/08 07:07:12;;;;;;;13.35;1.83;;;17.70;99.90;;;;;;5037150;28;20029;-73
2022/07/08 07:09:38;;;;;;;14.43;2.03;;;17.80;99.90;;;;;;5032918;28;20457;-73
2022/07/08 07:12:06;;;;;;;10.18;2.35;;;17.90;99.90;;;;;;5030333;28;20466;-72
2022/07/08 07:14:32;;;;;;;13.80;2.33;;;18.00;99.90;;;;;;5030210;28;20014;-72
2022/07/08 07:16:57;;;;;;;12.95;2.05;;;18.10;99.90;;;;;;5030164;28;20053;-72
2022/07/08 07:19:23;;;;;;;10.65;2.28;;;18.20;99.90;;;;;;5029758;28;20056;-72
2022/07/08 07:21:48;;;;;;;12.55;2.03;;;18.30;99.90;;;;;;5031546;28;20021;-72
2022/07/08 07:24:15;;;;;;;8.52;1.88;;;18.40;99.90;;;;;;5033959;28;20105;-73
2022/07/08 07:26:41;;;;;;;8.63;1.67;;;18.40;99.90;;;;;;5033684;28;20097;-72
2022/07/08 07:29:07;;;;;;;8.75;2.20;;;18.50;99.90;;;;;;5039189;28;20032;-73
2022/07/08 07:31:34;;;;;;;13.63;1.90;;;18.70;99.90;;;;;;5037721;28;20374;-72
2022/07/08 07:34:00;;;;;;;11.60;1.50;;;18.80;99.90;;;;;;5033774;28;20079;-73
2022/07/08 07:36:26;;;;;;;7.80;2.03;;;18.90;99.90;;;;;;5033497;28;20075;-72
2022/07/08 07:38:51;;;;;;;10.55;2.03;;;19.10;99.90;;;;;;5033268;28;20561;-72
2022/07/08 07:41:17;;;;;;;9.55;1.80;;;19.10;99.90;;;;;;5033605;28;20117;-74
2022/07/08 07:43:43;;;;;;;9.02;1.52;;;19.20;99.90;;;;;;5035999;28;20546;-72
2022/07/08 07:46:08;;;;;;;6.03;1.50;;;19.40;99.90;;;;;;5033434;28;20027;-72
2022/07/08 07:48:34;;;;;;;7.65;1.70;;;19.40;99.90;;;;;;5033567;28;20022;-72
2022/07/08 07:51:00;;;;;;;6.90;1.60;;;19.50;99.90;;;;;;5033264;28;20481;-73
2022/07/08 07:53:26;;;;;;;8.23;1.90;;;19.70;99.90;;;;;;5033190;28;20029;-72
2022/07/08 07:55:52;;;;;;;6.35;1.70;;;19.80;99.90;;;;;;5046134;28;20526;-73
2022/07/08 07:58:17;;;;;;;12.18;1.50;;;19.90;99.90;;;;;;5053047;28;20025;-73
2022/07/08 08:00:43;;;;;;;9.52;1.80;;;20.00;99.90;;;;;;5053084;28;20508;-72
2022/07/08 08:03:08;;;;;;;6.88;1.52;;;20.10;99.90;;;;;;5052985;28;20099;-72
2022/07/08 08:05:34;;;;;;;7.32;1.60;;;20.20;99.90;;;;;;5053033;28;20021;-73
2022/07/08 08:08:00;;;;;;;8.70;1.42;;;20.30;99.90;;;;;;5052810;28;20028;-73
2022/07/08 08:10:26;;;;;;;7.10;1.70;;;20.50;99.90;;;;;;5053349;28;20032;-73
2022/07/08 08:12:52;;;;;;;8.65;1.60;;;20.50;99.90;;;;;;5053051;28;20377;-72
2022/07/08 08:15:17;;;;;;;7.78;1.65;;;20.60;99.90;;;;;;5052784;28;20029;-72
2022/07/08 08:17:43;;;;;;;6.30;1.70;;;20.70;99.90;;;;;;5052665;28;20275;-73
2022/07/08 08:20:11;;;;;;;8.60;1.80;;;20.80;99.90;;;;;;5052661;28;20029;-73
2022/07/08 08:22:37;;;;;;;6.70;1.38;;;21.00;99.90;;;;;;5052592;28;20044;-73
2022/07/08 08:25:03;;;;;;;6.20;1.50;;;21.10;99.90;;;;;;5052665;28;20107;-72
2022/07/08 08:27:30;;;;;;;10.27;1.67;;;21.20;99.90;;;;;;5052832;28;20532;-73
2022/07/08 08:29:55;;;;;;;10.93;1.80;;;21.30;99.90;;;;;;5052555;28;20319;-72
2022/07/08 08:32:21;;;;;;;9.15;1.90;;;21.40;99.90;;;;;;5051829;28;20027;-72
2022/07/08 08:34:47;;;;;;;11.50;1.52;;;21.50;99.90;;;;;;5052445;28;20130;-73
2022/07/08 08:37:14;;;;;;;7.13;1.30;;;21.50;99.90;;;;;;5052211;28;20056;-72
2022/07/08 08:39:40;;;;;;;9.95;1.73;;;21.60;99.90;;;;;;5052749;28;20033;-74
2022/07/08 08:42:07;;;;;;;9.07;1.80;;;21.60;99.90;;;;;;5042827;28;20067;-74
2022/07/08 08:44:33;;;;;;;5.20;1.50;;;21.70;99.90;;;;;;5031257;28;20036;-75
2022/07/08 08:47:02;;;;;;;7.68;1.70;;;21.80;99.90;;;;;;5030191;28;20021;-74
2022/07/08 08:49:33;;;;;;;8.13;1.60;;;21.80;99.90;;;;;;5030474;28;20021;-75
2022/07/08 08:52:01;;;;;;;6.00;1.55;;;21.90;99.90;;;;;;5030734;28;20017;-74
2022/07/08 08:54:32;;;;;;;5.25;1.45;;;22.00;99.90;;;;;;5031341;28;20092;-74
2022/07/08 08:56:58;;;;;;;5.63;1.40;;;22.10;99.90;;;;;;5030678;28;20056;-74
2022/07/08 08:59:24;;;;;;;4.80;1.33;;;22.30;99.90;;;;;;5031052;28;20052;-74
2022/07/08 09:01:50;;;;;;;7.47;1.48;;;22.30;99.90;;;;;;5036850;28;20028;-74
2022/07/08 09:04:18;;;;;;;8.23;1.63;;;22.40;99.00;;;;;;5050304;28;20029;-74
2022/07/08 09:06:44;;;;;;;2.85;1.10;;;22.40;97.80;;;;;;5031471;28;20076;-74
2022/07/08 09:09:09;;;;;;;5.25;1.23;;;22.50;96.90;;;;;;5031682;28;20029;-74
2022/07/08 09:11:35;;;;;;;6.35;1.38;;;22.50;96.60;;;;;;5031297;28;20120;-74
2022/07/08 09:14:17;;;;;;;6.22;1.20;;;22.70;96.10;;;;;;5031187;28;20037;-74
2022/07/08 09:17:10;;;;;;;4.45;1.05;;;22.80;94.70;;;;;;5031317;28;20029;-74
2022/07/08 09:19:42;;;;;;;8.80;1.40;;;22.90;94.80;;;;;;5031907;28;20022;-74
2022/07/08 09:22:08;;;;;;;4.65;1.15;;;23.00;95.00;;;;;;5030622;28;20651;-75
2022/07/08 09:24:35;;;;;;;8.25;1.40;;;23.10;95.20;;;;;;5032937;28;20021;-74
2022/07/08 09:27:11;;;;;;;6.18;1.25;;;23.30;95.20;;;;;;5030636;28;20025;-74
2022/07/08 09:29:58;;;;;;;4.93;1.25;;;23.50;94.50;;;;;;5040460;28;20029;-74
2022/07/08 09:32:24;;;;;;;4.82;1.35;;;23.60;92.80;;;;;;5031841;28;20116;-74
2022/07/08 09:34:49;;;;;;;4.38;1.10;;;23.70;93.20;;;;;;5031229;28;20105;-74
2022/07/08 09:37:17;;;;;;;7.32;1.40;;;23.70;92.20;;;;;;5031531;28;20491;-73
2022/07/08 09:39:44;;;;;;;7.43;1.27;;;23.70;91.70;;;;;;5031723;28;20079;-74
2022/07/08 09:42:10;;;;;;;7.00;1.50;;;23.70;92.00;;;;;;5031933;28;20095;-74
2022/07/08 09:44:37;;;;;;;4.05;1.15;;;23.70;91.40;;;;;;5030955;28;20092;-74
2022/07/08 09:47:12;;;;;;;7.03;1.20;;;23.80;91.60;;;;;;5032316;28;20032;-74
2022/07/08 09:49:43;;;;;;;6.40;1.30;;;23.90;90.90;;;;;;5031136;28;20018;-74
2022/07/08 09:52:21;;;;;;;5.18;1.00;;;23.90;90.50;;;;;;5031923;28;20757;-74
2022/07/08 09:54:59;;;;;;;3.97;1.02;;;24.00;86.40;;;;;;5035831;28;20036;-74
2022/07/08 09:57:25;;;;;;;3.70;1.10;;;24.00;85.90;;;;;;5052413;28;20031;-74
2022/07/08 09:59:53;;;;;;;4.45;1.10;;;24.00;84.20;;;;;;5034294;28;20029;-73
2022/07/08 10:02:19;;;;;;;3.35;0.98;;;24.20;83.60;;;;;;5032994;28;20045;-73
2022/07/08 10:04:45;;;;;;;8.30;1.05;;;24.20;81.30;;;;;;5032163;28;20482;-73
2022/07/08 10:07:11;;;;;;;4.00;0.80;;;24.40;78.90;;;;;;5033075;28;20049;-74
2022/07/08 10:09:36;;;;;;;3.88;0.95;;;24.40;78.30;;;;;;5033021;28;20524;-72
2022/07/08 10:12:04;;;;;;;5.45;1.15;;;24.50;78.10;;;;;;5032445;28;20064;-72
2022/07/08 10:14:30;;;;;;;3.72;0.98;;;24.70;76.30;;;;;;5032672;28;20528;-74
2022/07/08 10:16:58;;;;;;;3.78;0.98;;;24.70;75.30;;;;;;5029767;28;20037;-75
2022/07/08 10:19:29;;;;;;;5.28;1.25;;;24.70;74.00;;;;;;5029792;28;20505;-74
2022/07/08 10:21:57;;;;;;;3.83;1.02;;;24.80;74.10;;;;;;5042847;28;20017;-75
2022/07/08 10:24:26;;;;;;;5.78;1.10;;;24.80;73.10;;;;;;5032181;28;20186;-75
2022/07/08 10:26:56;;;;;;;2.65;1.00;;;24.90;72.50;;;;;;5034617;28;20029;-75
2022/07/08 10:29:29;;;;;;;4.30;1.00;;;24.90;71.60;;;;;;5030069;28;20029;-75
2022/07/08 10:31:56;;;;;;;4.13;1.25;;;25.00;72.00;;;;;;5030076;28;20060;-75
2022/07/08 10:34:30;;;;;;;5.00;1.50;;;25.10;72.20;;;;;;5032972;28;20048;-75
2022/07/08 10:36:56;;;;;;;3.88;1.33;;;25.20;71.40;;;;;;5030885;28;20025;-75
2022/07/08 10:39:39;;;;;;;2.97;1.05;;;25.20;70.80;;;;;;5030524;28;20031;-75
2022/07/08 10:42:09;;;;;;;3.33;1.00;;;25.30;70.10;;;;;;5032505;28;20045;-75
2022/07/08 10:44:44;;;;;;;4.25;1.10;;;25.20;69.60;;;;;;5031535;28;20089;-75
2022/07/08 10:47:11;;;;;;;2.13;0.97;;;25.20;68.40;;;;;;5029767;28;20083;-75
2022/07/08 10:49:44;;;;;;;3.42;0.80;;;25.10;68.10;;;;;;5035579;28;20267;-75
2022/07/08 10:52:10;;;;;;;3.97;0.90;;;25.10;67.20;;;;;;5031968;28;20052;-75
2022/07/08 10:54:39;;;;;;;3.85;1.17;;;25.00;65.60;;;;;;5033981;28;20041;-75
2022/07/08 10:57:13;;;;;;;4.15;1.00;;;25.00;66.10;;;;;;5053282;28;20029;-75
2022/07/08 10:59:39;;;;;;;4.05;0.90;;;25.00;66.20;;;;;;5039190;28;20030;-75
2022/07/08 11:02:06;;;;;;;4.15;1.10;;;24.90;64.90;;;;;;5035043;28;20032;-75
2022/07/08 11:04:35;;;;;;;2.97;0.80;;;24.90;65.10;;;;;;5034331;28;20214;-75
2022/07/08 11:07:26;;;;;;;3.65;1.00;;;25.10;65.00;;;;;;5036937;28;20029;-75
2022/07/08 11:10:12;;;;;;;5.20;1.25;;;25.20;63.90;;;;;;5034254;28;20067;-75
2022/07/08 11:12:40;;;;;;;2.25;0.80;;;25.20;62.80;;;;;;5034070;28;20037;-76
2022/07/08 11:15:14;;;;;;;6.60;1.30;;;25.20;63.30;;;;;;5034151;28;20013;-75
2022/07/08 11:17:41;;;;;;;4.30;0.95;;;25.20;62.00;;;;;;5033905;28;20026;-75
2022/07/08 11:20:10;;;;;;;5.50;1.20;;;25.10;63.30;;;;;;5045292;28;20485;-75
2022/07/08 11:22:40;;;;;;;5.07;1.40;;;25.10;62.60;;;;;;5033830;28;20406;-75
2022/07/08 11:25:08;;;;;;;4.88;1.13;;;25.10;62.90;;;;;;5033635;28;20041;-76
2022/07/08 11:27:34;;;;;;;4.95;1.00;;;25.10;63.70;;;;;;5033826;28;20436;-75
2022/07/08 11:30:02;;;;;;;3.83;1.15;;;25.10;64.00;;;;;;5036275;28;20021;-75
2022/07/08 11:32:30;;;;;;;4.63;1.15;;;25.10;64.80;;;;;;5033389;28;20583;-75
2022/07/08 11:34:56;;;;;;;6.72;1.30;;;25.00;65.50;;;;;;5036347;28;20013;-75
2022/07/08 11:37:22;;;;;;;6.30;1.20;;;25.10;66.00;;;;;;5040577;28;20032;-75
2022/07/08 11:39:48;;;;;;;7.57;1.40;;;25.20;65.20;;;;;;5035646;28;20030;-75
2022/07/08 11:42:15;;;;;;;6.88;1.38;;;25.20;65.70;;;;;;5038324;28;20076;-75
2022/07/08 11:44:41;;;;;;;9.77;1.80;;;25.30;66.50;;;;;;5037286;28;20441;-75
2022/07/08 11:47:10;;;;;;;8.25;1.50;;;25.30;66.30;;;;;;5036752;28;20036;-75
2022/07/08 11:49:42;;;;;;;9.32;1.50;;;25.40;66.70;;;;;;5032862;28;20452;-75
2022/07/08 11:52:07;;;;;;;6.22;1.33;;;25.40;66.10;;;;;;5037050;28;20096;-76
2022/07/08 11:54:33;;;;;;;6.85;1.40;;;25.40;66.60;;;;;;5034506;28;20421;-75
2022/07/08 11:57:01;;;;;;;4.97;1.45;;;25.50;67.00;;;;;;5036341;28;20025;-75
2022/07/08 11:59:31;;;;;;;7.32;1.40;;;25.60;66.50;;;;;;5037366;28;20040;-76
2022/07/08 12:01:59;;;;;;;7.20;1.65;;;25.80;67.40;;;;;;5036190;28;20075;-76
2022/07/08 12:04:25;;;;;;;7.30;1.50;;;25.80;64.80;;;;;;5037020;28;20025;-75
2022/07/08 12:06:54;;;;;;;6.18;1.30;;;25.80;64.80;;;;;;5047650;28;20048;-75
2022/07/08 12:09:25;;;;;;;4.60;1.48;;;25.70;65.30;;;;;;5036095;28;20113;-75
2022/07/08 12:11:54;;;;;;;7.30;1.60;;;25.70;65.90;;;;;;5041260;28;20025;-76
2022/07/08 12:14:20;;;;;;;9.10;1.58;;;25.70;65.60;;;;;;5045183;28;20401;-76
2022/07/08 12:16:51;;;;;;;4.55;1.58;;;25.70;64.90;;;;;;5036344;28;20021;-76
2022/07/08 12:19:37;;;;;;;5.43;1.40;;;25.70;65.00;;;;;;5038873;28;20493;-76
2022/07/08 12:22:04;;;;;;;5.28;1.25;;;25.80;65.20;;;;;;5046891;28;20108;-73
2022/07/08 12:24:35;;;;;;;5.50;1.55;;;25.90;65.30;;;;;;5034474;28;20044;-76
2022/07/08 12:27:02;;;;;;;5.45;1.40;;;26.00;64.50;;;;;;5037929;28;20033;-76
2022/07/08 12:29:32;;;;;;;8.27;1.80;;;26.00;63.80;;;;;;5050970;28;20040;-75
2022/07/08 12:31:58;;;;;;;7.47;1.52;;;26.00;63.70;;;;;;5039105;28;20029;-75
2022/07/08 12:34:24;;;;;;;7.68;1.50;;;25.90;63.80;;;;;;5034297;28;20037;-75
2022/07/08 12:36:51;;;;;;;7.65;1.40;;;25.80;64.30;;;;;;5034291;28;20029;-75
2022/07/08 12:39:19;;;;;;;7.07;1.60;;;25.90;64.90;;;;;;5036094;28;20025;-74
2022/07/08 12:42:01;;;;;;;10.38;1.95;;;26.00;65.80;;;;;;5040798;28;20033;-75
2022/07/08 12:44:40;;;;;;;5.97;1.60;;;26.10;65.30;;;;;;5039536;28;20121;-75